sensor_id;sensor_type;location;lat;lon;timestamp;pressure;altitude;pressure_sealevel;temperature;humidity
62942;BME280;49042;47.318;19.874;2023-03-23T00:02:30;100357.22;;;6.60;80.41
62942;BME280;49042;47.318;19.874;2023-03-23T00:05:35;100362.56;;;6.45;80.04
62942;BME280;49042;47.318;19.874;2023-03-23T00:08:38;100361.75;;;6.46;80.48
62942;BME280;49042;47.318;19.874;2023-03-23T00:11:45;100355.44;;;6.59;79.84
62942;BME280;49042;47.318;19.874;2023-03-23T00:14:45;100350.25;;;6.59;79.88
62942;BME280;49042;47.318;19.874;2023-03-23T00:17:47;100349.03;;;6.70;79.18
62942;BME280;49042;47.318;19.874;2023-03-23T00:23:49;100347.88;;;6.83;78.14
62942;BME280;49042;47.318;19.874;2023-03-23T00:26:49;100346.06;;;6.81;78.69
62942;BME280;49042;47.318;19.874;2023-03-23T00:29:51;100344.78;;;6.52;79.29
62942;BME280;49042;47.318;19.874;2023-03-23T00:32:52;100346.91;;;6.23;81.03
62942;BME280;49042;47.318;19.874;2023-03-23T00:35:54;100345.84;;;6.38;80.69
62942;BME280;49042;47.318;19.874;2023-03-23T00:38:55;100341.34;;;5.97;82.12
62942;BME280;49042;47.318;19.874;2023-03-23T00:41:59;100343.00;;;6.13;81.98
62942;BME280;49042;47.318;19.874;2023-03-23T00:45:03;100340.25;;;6.10;82.05
62942;BME280;49042;47.318;19.874;2023-03-23T00:48:13;100343.09;;;6.15;81.42
62942;BME280;49042;47.318;19.874;2023-03-23T00:51:14;100333.81;;;6.20;81.06
62942;BME280;49042;47.318;19.874;2023-03-23T00:54:14;100329.28;;;6.34;80.45
62942;BME280;49042;47.318;19.874;2023-03-23T00:57:15;100334.06;;;6.45;80.26
62942;BME280;49042;47.318;19.874;2023-03-23T01:00:18;100327.09;;;6.43;80.67
62942;BME280;49042;47.318;19.874;2023-03-23T01:03:19;100333.00;;;6.21;81.00
62942;BME280;49042;47.318;19.874;2023-03-23T01:06:20;100331.47;;;6.08;81.53
62942;BME280;49042;47.318;19.874;2023-03-23T01:09:21;100327.03;;;6.05;81.75
62942;BME280;49042;47.318;19.874;2023-03-23T01:12:22;100327.66;;;5.99;82.43
62942;BME280;49042;47.318;19.874;2023-03-23T01:15:25;100324.78;;;6.12;82.13
62942;BME280;49042;47.318;19.874;2023-03-23T01:18:25;100317.53;;;5.86;82.85
62942;BME280;49042;47.318;19.874;2023-03-23T01:21:26;100319.50;;;5.73;83.80
62942;BME280;49042;47.318;19.874;2023-03-23T01:24:27;100323.06;;;4.88;87.00
62942;BME280;49042;47.318;19.874;2023-03-23T01:27:27;100321.53;;;4.75;87.93
62942;BME280;49042;47.318;19.874;2023-03-23T01:30:28;100328.00;;;4.35;89.67
62942;BME280;49042;47.318;19.874;2023-03-23T01:33:29;100318.22;;;5.11;85.62
62942;BME280;49042;47.318;19.874;2023-03-23T01:36:31;100321.09;;;5.18;84.44
62942;BME280;49042;47.318;19.874;2023-03-23T01:39:33;100327.03;;;4.65;85.89
62942;BME280;49042;47.318;19.874;2023-03-23T01:42:37;100323.25;;;4.26;89.55
62942;BME280;49042;47.318;19.874;2023-03-23T01:45:38;100322.37;;;4.10;90.58
62942;BME280;49042;47.318;19.874;2023-03-23T01:48:39;100323.75;;;4.35;88.95
62942;BME280;49042;47.318;19.874;2023-03-23T01:51:42;100330.41;;;4.00;91.31
62942;BME280;49042;47.318;19.874;2023-03-23T01:54:46;100319.44;;;3.72;92.21
62942;BME280;49042;47.318;19.874;2023-03-23T01:57:48;100327.81;;;4.15;90.10
62942;BME280;49042;47.318;19.874;2023-03-23T02:00:49;100333.56;;;4.26;89.33
62942;BME280;49042;47.318;19.874;2023-03-23T02:03:52;100330.22;;;4.44;88.48
62942;BME280;49042;47.318;19.874;2023-03-23T02:06:54;100329.34;;;4.43;88.34
62942;BME280;49042;47.318;19.874;2023-03-23T02:09:56;100323.78;;;4.52;88.09
62942;BME280;49042;47.318;19.874;2023-03-23T02:12:58;100322.00;;;4.51;87.88
62942;BME280;49042;47.318;19.874;2023-03-23T02:16:11;100324.47;;;4.33;88.61
62942;BME280;49042;47.318;19.874;2023-03-23T02:35:52;100331.16;;;4.29;88.95
62942;BME280;49042;47.318;19.874;2023-03-23T02:42:07;100335.53;;;4.30;88.55
62942;BME280;49042;47.318;19.874;2023-03-23T02:45:10;100341.75;;;4.34;88.51
62942;BME280;49042;47.318;19.874;2023-03-23T02:48:15;100336.75;;;4.37;88.05
62942;BME280;49042;47.318;19.874;2023-03-23T02:51:22;100333.31;;;4.53;87.08
62942;BME280;49042;47.318;19.874;2023-03-23T02:54:24;100334.19;;;4.54;87.04
62942;BME280;49042;47.318;19.874;2023-03-23T02:57:27;100338.25;;;4.48;87.26
62942;BME280;49042;47.318;19.874;2023-03-23T03:00:28;100334.03;;;4.50;86.89
62942;BME280;49042;47.318;19.874;2023-03-23T03:03:29;100340.06;;;4.34;87.45
62942;BME280;49042;47.318;19.874;2023-03-23T03:06:37;100340.25;;;3.75;90.25
62942;BME280;49042;47.318;19.874;2023-03-23T03:09:51;100342.31;;;3.66;91.72
62942;BME280;49042;47.318;19.874;2023-03-23T03:13:30;100346.81;;;3.39;92.81
62942;BME280;49042;47.318;19.874;2023-03-23T03:16:44;100340.34;;;3.77;91.70
62942;BME280;49042;47.318;19.874;2023-03-23T03:19:49;100349.59;;;3.73;90.96
62942;BME280;49042;47.318;19.874;2023-03-23T03:22:53;100349.03;;;3.94;90.75
62942;BME280;49042;47.318;19.874;2023-03-23T03:25:56;100337.59;;;3.89;90.87
62942;BME280;49042;47.318;19.874;2023-03-23T03:28:58;100344.34;;;3.71;90.69
62942;BME280;49042;47.318;19.874;2023-03-23T03:31:59;100353.88;;;3.42;92.21
62942;BME280;49042;47.318;19.874;2023-03-23T03:35:02;100359.19;;;3.30;93.19
62942;BME280;49042;47.318;19.874;2023-03-23T03:38:08;100355.19;;;3.50;92.35
62942;BME280;49042;47.318;19.874;2023-03-23T03:41:09;100354.31;;;3.80;90.48
62942;BME280;49042;47.318;19.874;2023-03-23T03:44:10;100344.50;;;3.90;89.71
62942;BME280;49042;47.318;19.874;2023-03-23T03:47:11;100348.06;;;3.92;89.51
62942;BME280;49042;47.318;19.874;2023-03-23T03:50:11;100352.31;;;4.06;89.13
62942;BME280;49042;47.318;19.874;2023-03-23T03:53:13;100359.13;;;3.74;89.92
62942;BME280;49042;47.318;19.874;2023-03-23T03:56:14;100362.66;;;3.61;90.96
62942;BME280;49042;47.318;19.874;2023-03-23T03:59:14;100360.53;;;3.53;92.16
62942;BME280;49042;47.318;19.874;2023-03-23T04:02:15;100365.25;;;3.46;92.71
62942;BME280;49042;47.318;19.874;2023-03-23T04:05:23;100374.03;;;3.34;93.59
62942;BME280;49042;47.318;19.874;2023-03-23T04:08:24;100375.72;;;2.89;94.77
62942;BME280;49042;47.318;19.874;2023-03-23T04:11:27;100365.41;;;2.47;97.84
62942;BME280;49042;47.318;19.874;2023-03-23T04:14:27;100373.34;;;2.37;98.50
62942;BME280;49042;47.318;19.874;2023-03-23T04:17:28;100378.69;;;2.40;96.63
62942;BME280;49042;47.318;19.874;2023-03-23T04:20:28;100374.81;;;2.46;96.12
62942;BME280;49042;47.318;19.874;2023-03-23T04:23:30;100382.53;;;2.60;95.50
62942;BME280;49042;47.318;19.874;2023-03-23T04:26:33;100378.41;;;2.77;95.09
62942;BME280;49042;47.318;19.874;2023-03-23T04:29:34;100378.44;;;3.06;93.74
62942;BME280;49042;47.318;19.874;2023-03-23T04:32:35;100374.19;;;3.22;93.36
62942;BME280;49042;47.318;19.874;2023-03-23T04:35:36;100373.75;;;3.29;92.67
62942;BME280;49042;47.318;19.874;2023-03-23T04:38:36;100375.06;;;3.23;92.68
62942;BME280;49042;47.318;19.874;2023-03-23T04:41:37;100368.44;;;2.97;94.46
62942;BME280;49042;47.318;19.874;2023-03-23T04:44:37;100370.19;;;3.27;93.38
62942;BME280;49042;47.318;19.874;2023-03-23T04:47:38;100371.03;;;2.69;96.02
62942;BME280;49042;47.318;19.874;2023-03-23T04:50:41;100367.16;;;2.62;97.02
62942;BME280;49042;47.318;19.874;2023-03-23T04:53:42;100372.81;;;2.98;95.96
62942;BME280;49042;47.318;19.874;2023-03-23T04:56:42;100362.56;;;3.44;93.32
62942;BME280;49042;47.318;19.874;2023-03-23T04:59:43;100366.47;;;3.68;92.33
62942;BME280;49042;47.318;19.874;2023-03-23T05:02:45;100369.25;;;3.86;91.63
62942;BME280;49042;47.318;19.874;2023-03-23T05:05:53;100366.28;;;4.10;91.03
62942;BME280;49042;47.318;19.874;2023-03-23T05:08:53;100371.06;;;4.34;89.99
62942;BME280;49042;47.318;19.874;2023-03-23T05:11:54;100383.66;;;4.45;89.36
62942;BME280;49042;47.318;19.874;2023-03-23T05:14:55;100376.47;;;3.77;89.68
62942;BME280;49042;47.318;19.874;2023-03-23T05:17:55;100384.81;;;3.57;91.19
62942;BME280;49042;47.318;19.874;2023-03-23T05:21:00;100381.53;;;4.05;89.51
62942;BME280;49042;47.318;19.874;2023-03-23T05:24:00;100381.25;;;4.16;89.18
62942;BME280;49042;47.318;19.874;2023-03-23T05:27:01;100393.91;;;3.66;92.37
62942;BME280;49042;47.318;19.874;2023-03-23T05:30:04;100388.09;;;3.55;94.01
62942;BME280;49042;47.318;19.874;2023-03-23T05:33:05;100392.75;;;3.60;93.96
62942;BME280;49042;47.318;19.874;2023-03-23T05:36:06;100388.72;;;4.11;91.22
62942;BME280;49042;47.318;19.874;2023-03-23T05:39:13;100391.03;;;4.06;90.73
62942;BME280;49042;47.318;19.874;2023-03-23T05:42:14;100387.59;;;3.91;92.23
62942;BME280;49042;47.318;19.874;2023-03-23T05:45:15;100384.28;;;4.09;92.68
62942;BME280;49042;47.318;19.874;2023-03-23T05:48:16;100387.50;;;4.68;89.71
62942;BME280;49042;47.318;19.874;2023-03-23T05:51:17;100384.75;;;5.49;86.54
62942;BME280;49042;47.318;19.874;2023-03-23T05:54:19;100383.50;;;5.07;89.63
62942;BME280;49042;47.318;19.874;2023-03-23T05:57:19;100387.84;;;5.25;90.53
62942;BME280;49042;47.318;19.874;2023-03-23T06:00:23;100387.41;;;5.34;90.72
62942;BME280;49042;47.318;19.874;2023-03-23T06:03:24;100382.22;;;5.67;91.10
62942;BME280;49042;47.318;19.874;2023-03-23T06:06:25;100375.69;;;5.57;92.32
62942;BME280;49042;47.318;19.874;2023-03-23T06:09:26;100384.19;;;5.73;91.72
62942;BME280;49042;47.318;19.874;2023-03-23T06:12:27;100384.66;;;6.74;89.07
62942;BME280;49042;47.318;19.874;2023-03-23T06:15:27;100383.22;;;7.21;84.85
62942;BME280;49042;47.318;19.874;2023-03-23T06:18:31;100376.84;;;7.97;82.27
62942;BME280;49042;47.318;19.874;2023-03-23T06:21:34;100379.94;;;7.88;79.98
62942;BME280;49042;47.318;19.874;2023-03-23T06:24:34;100380.81;;;8.55;77.24
62942;BME280;49042;47.318;19.874;2023-03-23T06:27:35;100374.81;;;9.55;73.34
62942;BME280;49042;47.318;19.874;2023-03-23T06:30:36;100379.13;;;10.34;68.23
62942;BME280;49042;47.318;19.874;2023-03-23T06:33:38;100376.37;;;11.21;62.99
62942;BME280;49042;47.318;19.874;2023-03-23T06:36:39;100378.44;;;12.03;58.97
62942;BME280;49042;47.318;19.874;2023-03-23T06:39:40;100382.63;;;14.17;51.91
62942;BME280;49042;47.318;19.874;2023-03-23T06:42:40;100390.53;;;15.67;46.86
62942;BME280;49042;47.318;19.874;2023-03-23T06:45:41;100388.69;;;16.82;43.59
62942;BME280;49042;47.318;19.874;2023-03-23T06:48:42;100392.41;;;17.64;40.36
62942;BME280;49042;47.318;19.874;2023-03-23T06:51:42;100383.16;;;19.43;36.48
62942;BME280;49042;47.318;19.874;2023-03-23T06:54:43;100387.72;;;20.34;35.59
62942;BME280;49042;47.318;19.874;2023-03-23T06:57:44;100384.28;;;22.16;32.69
62942;BME280;49042;47.318;19.874;2023-03-23T07:00:45;100384.66;;;23.29;30.33
62942;BME280;49042;47.318;19.874;2023-03-23T07:03:46;100374.47;;;23.47;29.18
62942;BME280;49042;47.318;19.874;2023-03-23T07:06:46;100376.44;;;24.78;27.72
62942;BME280;49042;47.318;19.874;2023-03-23T07:09:47;100384.47;;;22.53;29.28
62942;BME280;49042;47.318;19.874;2023-03-23T07:12:47;100376.81;;;22.37;29.64
62942;BME280;49042;47.318;19.874;2023-03-23T07:15:48;100389.13;;;24.37;27.72
62942;BME280;49042;47.318;19.874;2023-03-23T07:18:50;100386.47;;;24.02;27.45
62942;BME280;49042;47.318;19.874;2023-03-23T07:21:51;100387.31;;;25.87;25.77
62942;BME280;49042;47.318;19.874;2023-03-23T07:24:52;100389.37;;;26.80;24.40
62942;BME280;49042;47.318;19.874;2023-03-23T07:27:52;100388.97;;;26.42;24.22
62942;BME280;49042;47.318;19.874;2023-03-23T07:30:53;100384.88;;;27.51;22.97
62942;BME280;49042;47.318;19.874;2023-03-23T07:33:53;100388.63;;;28.73;21.80
62942;BME280;49042;47.318;19.874;2023-03-23T07:36:54;100391.72;;;25.88;24.61
62942;BME280;49042;47.318;19.874;2023-03-23T07:39:55;100386.72;;;22.29;30.03
62942;BME280;49042;47.318;19.874;2023-03-23T07:42:57;100393.91;;;21.09;31.61
62942;BME280;49042;47.318;19.874;2023-03-23T07:45:57;100394.06;;;20.95;32.70
62942;BME280;49042;47.318;19.874;2023-03-23T07:48:58;100387.62;;;19.31;35.56
62942;BME280;49042;47.318;19.874;2023-03-23T07:52:00;100390.66;;;18.10;38.08
62942;BME280;49042;47.318;19.874;2023-03-23T07:55:03;100386.25;;;18.17;39.44
62942;BME280;49042;47.318;19.874;2023-03-23T07:58:03;100398.00;;;16.18;43.29
62942;BME280;49042;47.318;19.874;2023-03-23T08:01:04;100393.44;;;16.04;44.59
62942;BME280;49042;47.318;19.874;2023-03-23T08:04:05;100394.75;;;16.66;43.57
62942;BME280;49042;47.318;19.874;2023-03-23T08:07:06;100389.06;;;19.76;38.35
62942;BME280;49042;47.318;19.874;2023-03-23T08:10:07;100393.37;;;22.04;33.16
62942;BME280;49042;47.318;19.874;2023-03-23T08:13:11;100388.50;;;26.29;27.20
62942;BME280;49042;47.318;19.874;2023-03-23T08:16:12;100399.09;;;30.61;22.25
62942;BME280;49042;47.318;19.874;2023-03-23T08:19:13;100399.22;;;32.77;18.90
62942;BME280;49042;47.318;19.874;2023-03-23T08:22:14;100401.00;;;30.24;20.31
62942;BME280;49042;47.318;19.874;2023-03-23T08:25:15;100399.63;;;31.96;19.34
62942;BME280;49042;47.318;19.874;2023-03-23T08:28:17;100402.34;;;32.11;18.53
62942;BME280;49042;47.318;19.874;2023-03-23T08:31:18;100396.72;;;32.74;17.90
62942;BME280;49042;47.318;19.874;2023-03-23T08:34:19;100395.28;;;31.93;17.87
62942;BME280;49042;47.318;19.874;2023-03-23T08:37:19;100402.22;;;31.67;18.21
62942;BME280;49042;47.318;19.874;2023-03-23T08:40:23;100395.94;;;29.82;19.60
62942;BME280;49042;47.318;19.874;2023-03-23T08:43:23;100402.25;;;27.41;21.55
62942;BME280;49042;47.318;19.874;2023-03-23T08:46:24;100402.22;;;26.71;23.12
62942;BME280;49042;47.318;19.874;2023-03-23T08:49:25;100399.91;;;28.20;21.37
62942;BME280;49042;47.318;19.874;2023-03-23T08:52:26;100401.44;;;28.45;21.59
62942;BME280;49042;47.318;19.874;2023-03-23T08:55:26;100399.47;;;28.70;20.68
62942;BME280;49042;47.318;19.874;2023-03-23T08:58:29;100402.41;;;28.65;20.93
62942;BME280;49042;47.318;19.874;2023-03-23T09:01:29;100398.34;;;29.89;20.32
62942;BME280;49042;47.318;19.874;2023-03-23T09:04:30;100401.19;;;30.38;18.75
62942;BME280;49042;47.318;19.874;2023-03-23T09:07:31;100392.81;;;29.55;20.11
62942;BME280;49042;47.318;19.874;2023-03-23T09:10:31;100402.75;;;28.76;20.36
62942;BME280;49042;47.318;19.874;2023-03-23T09:13:34;100406.09;;;29.21;19.75
62942;BME280;49042;47.318;19.874;2023-03-23T09:16:35;100397.69;;;28.90;19.60
62942;BME280;49042;47.318;19.874;2023-03-23T09:19:35;100405.09;;;33.12;16.75
62942;BME280;49042;47.318;19.874;2023-03-23T09:22:43;100400.72;;;32.96;16.38
62942;BME280;49042;47.318;19.874;2023-03-23T09:25:44;100396.63;;;34.66;15.07
62942;BME280;49042;47.318;19.874;2023-03-23T09:28:45;100397.69;;;34.76;14.87
62942;BME280;49042;47.318;19.874;2023-03-23T09:31:45;100388.97;;;32.68;16.59
62942;BME280;49042;47.318;19.874;2023-03-23T09:34:46;100399.94;;;28.80;18.98
62942;BME280;49042;47.318;19.874;2023-03-23T09:37:48;100399.09;;;31.27;17.13
62942;BME280;49042;47.318;19.874;2023-03-23T09:40:54;100389.37;;;29.33;18.73
62942;BME280;49042;47.318;19.874;2023-03-23T09:51:17;100381.75;;;33.53;16.19
62942;BME280;49042;47.318;19.874;2023-03-23T09:54:29;100381.69;;;33.81;15.38
62942;BME280;49042;47.318;19.874;2023-03-23T09:57:52;100380.47;;;31.06;16.74
62942;BME280;49042;47.318;19.874;2023-03-23T10:01:11;100379.47;;;31.09;17.40
62942;BME280;49042;47.318;19.874;2023-03-23T10:07:23;100379.84;;;28.69;19.09
62942;BME280;49042;47.318;19.874;2023-03-23T10:10:49;100374.56;;;26.95;21.97
62942;BME280;49042;47.318;19.874;2023-03-23T10:27:34;100341.38;;;21.35;28.51
62942;BME280;49042;47.318;19.874;2023-03-23T10:30:30;100343.00;;;19.99;30.63
62942;BME280;49042;47.318;19.874;2023-03-23T10:33:56;100338.78;;;20.67;30.91
62942;BME280;49042;47.318;19.874;2023-03-23T10:37:10;100330.12;;;20.50;30.58
62942;BME280;49042;47.318;19.874;2023-03-23T10:40:16;100330.88;;;20.63;30.40
62942;BME280;49042;47.318;19.874;2023-03-23T10:43:18;100329.59;;;20.20;32.14
62942;BME280;49042;47.318;19.874;2023-03-23T10:46:27;100328.03;;;19.97;32.12
62942;BME280;49042;47.318;19.874;2023-03-23T10:49:37;100332.16;;;20.26;31.93
62942;BME280;49042;47.318;19.874;2023-03-23T10:52:42;100321.91;;;20.74;31.68
62942;BME280;49042;47.318;19.874;2023-03-23T10:55:43;100312.28;;;21.28;30.88
62942;BME280;49042;47.318;19.874;2023-03-23T10:58:45;100320.88;;;20.84;30.80
62942;BME280;49042;47.318;19.874;2023-03-23T11:01:50;100314.31;;;21.11;31.30
62942;BME280;49042;47.318;19.874;2023-03-23T11:04:59;100307.66;;;20.05;31.34
62942;BME280;49042;47.318;19.874;2023-03-23T11:08:00;100309.62;;;19.86;32.65
62942;BME280;49042;47.318;19.874;2023-03-23T11:11:11;100319.91;;;20.17;32.01
62942;BME280;49042;47.318;19.874;2023-03-23T11:14:18;100304.59;;;21.10;31.07
62942;BME280;49042;47.318;19.874;2023-03-23T11:17:25;100309.41;;;20.82;31.42
62942;BME280;49042;47.318;19.874;2023-03-23T11:20:28;100306.47;;;20.35;30.48
62942;BME280;49042;47.318;19.874;2023-03-23T11:23:36;100295.63;;;20.55;31.44
62942;BME280;49042;47.318;19.874;2023-03-23T11:26:43;100288.75;;;21.08;30.43
62942;BME280;49042;47.318;19.874;2023-03-23T11:29:54;100279.78;;;21.15;30.67
62942;BME280;49042;47.318;19.874;2023-03-23T11:32:59;100278.75;;;21.26;30.82
62942;BME280;49042;47.318;19.874;2023-03-23T11:36:01;100281.81;;;20.96;29.94
62942;BME280;49042;47.318;19.874;2023-03-23T11:39:25;100287.47;;;20.71;31.54
62942;BME280;49042;47.318;19.874;2023-03-23T11:45:40;100283.09;;;20.70;30.75
62942;BME280;49042;47.318;19.874;2023-03-23T11:48:55;100271.97;;;20.41;31.33
62942;BME280;49042;47.318;19.874;2023-03-23T11:52:09;100264.34;;;20.14;32.04
62942;BME280;49042;47.318;19.874;2023-03-23T11:55:30;100269.41;;;20.33;32.00
62942;BME280;49042;47.318;19.874;2023-03-23T11:58:32;100269.53;;;20.24;32.00
62942;BME280;49042;47.318;19.874;2023-03-23T12:05:21;100269.09;;;20.58;31.03
62942;BME280;49042;47.318;19.874;2023-03-23T12:25:42;100245.19;;;19.87;32.64
62942;BME280;49042;47.318;19.874;2023-03-23T12:32:13;100248.09;;;20.46;31.12
62942;BME280;49042;47.318;19.874;2023-03-23T12:42:08;100234.69;;;21.17;30.71
62942;BME280;49042;47.318;19.874;2023-03-23T12:48:25;100240.25;;;21.54;29.83
62942;BME280;49042;47.318;19.874;2023-03-23T12:51:34;100239.16;;;21.66;29.90
62942;BME280;49042;47.318;19.874;2023-03-23T12:54:48;100236.19;;;21.32;30.48
62942;BME280;49042;47.318;19.874;2023-03-23T12:58:02;100230.44;;;21.03;30.26
62942;BME280;49042;47.318;19.874;2023-03-23T13:04:36;100219.09;;;20.95;31.52
62942;BME280;49042;47.318;19.874;2023-03-23T13:07:45;100217.34;;;20.92;31.42
62942;BME280;49042;47.318;19.874;2023-03-23T13:10:49;100208.97;;;21.21;31.43
62942;BME280;49042;47.318;19.874;2023-03-23T13:13:56;100210.09;;;21.08;31.41
62942;BME280;49042;47.318;19.874;2023-03-23T13:17:36;100212.09;;;20.91;31.22
62942;BME280;49042;47.318;19.874;2023-03-23T13:21:04;100204.81;;;21.04;31.38
62942;BME280;49042;47.318;19.874;2023-03-23T13:24:10;100199.56;;;21.53;30.62
62942;BME280;49042;47.318;19.874;2023-03-23T13:27:13;100184.38;;;22.87;28.48
62942;BME280;49042;47.318;19.874;2023-03-23T13:30:21;100191.31;;;24.27;26.21
62942;BME280;49042;47.318;19.874;2023-03-23T13:33:29;100179.87;;;25.86;24.24
62942;BME280;49042;47.318;19.874;2023-03-23T13:36:39;100178.06;;;24.24;26.00
62942;BME280;49042;47.318;19.874;2023-03-23T13:42:57;100167.72;;;26.25;23.83
62942;BME280;49042;47.318;19.874;2023-03-23T13:49:20;100172.84;;;28.20;21.44
62942;BME280;49042;47.318;19.874;2023-03-23T13:52:36;100164.59;;;26.60;23.17
62942;BME280;49042;47.318;19.874;2023-03-23T13:55:41;100171.28;;;28.16;21.94
62942;BME280;49042;47.318;19.874;2023-03-23T13:58:51;100166.16;;;29.39;20.26
62942;BME280;49042;47.318;19.874;2023-03-23T14:08:48;100184.06;;;25.16;24.50
62942;BME280;49042;47.318;19.874;2023-03-23T14:11:59;100179.87;;;22.91;27.13
62942;BME280;49042;47.318;19.874;2023-03-23T14:15:11;100182.09;;;21.89;29.11
62942;BME280;49042;47.318;19.874;2023-03-23T14:18:13;100176.25;;;21.71;29.56
62942;BME280;49042;47.318;19.874;2023-03-23T14:21:17;100186.50;;;21.90;29.46
62942;BME280;49042;47.318;19.874;2023-03-23T14:24:24;100183.47;;;21.62;30.52
62942;BME280;49042;47.318;19.874;2023-03-23T14:27:26;100176.09;;;21.31;30.23
62942;BME280;49042;47.318;19.874;2023-03-23T14:30:34;100170.84;;;21.29;29.76
62942;BME280;49042;47.318;19.874;2023-03-23T14:33:38;100171.69;;;21.78;30.32
62942;BME280;49042;47.318;19.874;2023-03-23T14:36:41;100171.22;;;21.04;31.07
62942;BME280;49042;47.318;19.874;2023-03-23T14:39:48;100166.97;;;21.48;30.34
62942;BME280;49042;47.318;19.874;2023-03-23T14:42:50;100167.19;;;20.81;30.88
62942;BME280;49042;47.318;19.874;2023-03-23T14:45:55;100168.41;;;20.58;31.36
62942;BME280;49042;47.318;19.874;2023-03-23T14:49:00;100166.72;;;21.11;30.96
62942;BME280;49042;47.318;19.874;2023-03-23T14:52:15;100169.81;;;20.22;32.15
62942;BME280;49042;47.318;19.874;2023-03-23T14:58:22;100175.19;;;20.16;32.95
62942;BME280;49042;47.318;19.874;2023-03-23T15:01:27;100166.47;;;20.06;32.57
62942;BME280;49042;47.318;19.874;2023-03-23T15:04:29;100165.75;;;19.92;32.68
62942;BME280;49042;47.318;19.874;2023-03-23T15:07:33;100158.97;;;19.72;33.67
62942;BME280;49042;47.318;19.874;2023-03-23T15:10:34;100157.00;;;19.88;33.41
62942;BME280;49042;47.318;19.874;2023-03-23T15:13:36;100158.78;;;19.84;33.19
62942;BME280;49042;47.318;19.874;2023-03-23T15:16:37;100157.97;;;19.79;33.57
62942;BME280;49042;47.318;19.874;2023-03-23T15:19:42;100157.44;;;20.25;32.61
62942;BME280;49042;47.318;19.874;2023-03-23T15:22:48;100161.63;;;20.41;32.19
62942;BME280;49042;47.318;19.874;2023-03-23T15:25:53;100153.66;;;20.99;31.38
62942;BME280;49042;47.318;19.874;2023-03-23T15:32:03;100155.56;;;20.90;31.46
62942;BME280;49042;47.318;19.874;2023-03-23T15:35:12;100155.50;;;20.95;31.54
62942;BME280;49042;47.318;19.874;2023-03-23T15:38:25;100154.22;;;20.62;32.12
62942;BME280;49042;47.318;19.874;2023-03-23T15:41:32;100157.44;;;19.48;33.71
62942;BME280;49042;47.318;19.874;2023-03-23T15:44:36;100149.00;;;19.07;34.62
62942;BME280;49042;47.318;19.874;2023-03-23T15:47:48;100157.88;;;18.98;34.91
62942;BME280;49042;47.318;19.874;2023-03-23T15:50:49;100155.37;;;18.78;35.58
62942;BME280;49042;47.318;19.874;2023-03-23T15:53:52;100165.22;;;18.58;36.15
62942;BME280;49042;47.318;19.874;2023-03-23T15:56:52;100163.56;;;18.41;36.54
62942;BME280;49042;47.318;19.874;2023-03-23T15:59:53;100161.78;;;18.47;36.96
62942;BME280;49042;47.318;19.874;2023-03-23T16:03:00;100167.16;;;18.23;37.40
62942;BME280;49042;47.318;19.874;2023-03-23T16:06:02;100159.31;;;18.12;37.44
62942;BME280;49042;47.318;19.874;2023-03-23T16:09:05;100168.97;;;18.10;37.74
62942;BME280;49042;47.318;19.874;2023-03-23T16:12:11;100176.09;;;17.92;38.35
62942;BME280;49042;47.318;19.874;2023-03-23T16:15:16;100166.41;;;17.93;38.26
62942;BME280;49042;47.318;19.874;2023-03-23T16:18:20;100170.88;;;17.75;38.92
62942;BME280;49042;47.318;19.874;2023-03-23T16:21:22;100175.31;;;17.57;39.60
62942;BME280;49042;47.318;19.874;2023-03-23T16:24:24;100169.19;;;17.50;39.99
62942;BME280;49042;47.318;19.874;2023-03-23T16:27:26;100184.13;;;17.43;40.26
62942;BME280;49042;47.318;19.874;2023-03-23T16:30:31;100177.97;;;17.43;40.27
62942;BME280;49042;47.318;19.874;2023-03-23T16:33:34;100178.03;;;17.24;40.90
62942;BME280;49042;47.318;19.874;2023-03-23T16:36:35;100175.34;;;17.11;41.53
62942;BME280;49042;47.318;19.874;2023-03-23T16:39:37;100169.22;;;16.84;42.39
62942;BME280;49042;47.318;19.874;2023-03-23T16:42:39;100167.47;;;16.78;42.47
62942;BME280;49042;47.318;19.874;2023-03-23T16:45:42;100177.06;;;16.65;42.81
62942;BME280;49042;47.318;19.874;2023-03-23T16:48:44;100177.03;;;16.45;43.67
62942;BME280;49042;47.318;19.874;2023-03-23T16:51:46;100184.00;;;16.24;44.42
62942;BME280;49042;47.318;19.874;2023-03-23T16:54:48;100183.06;;;16.08;44.98
62942;BME280;49042;47.318;19.874;2023-03-23T16:57:51;100175.97;;;15.99;45.40
62942;BME280;49042;47.318;19.874;2023-03-23T17:00:59;100182.94;;;15.86;45.66
62942;BME280;49042;47.318;19.874;2023-03-23T17:04:02;100171.44;;;15.66;46.30
62942;BME280;49042;47.318;19.874;2023-03-23T17:07:04;100173.09;;;15.51;46.71
62942;BME280;49042;47.318;19.874;2023-03-23T17:10:08;100185.28;;;15.35;47.56
62942;BME280;49042;47.318;19.874;2023-03-23T17:13:10;100187.78;;;15.19;48.27
62942;BME280;49042;47.318;19.874;2023-03-23T17:16:12;100190.38;;;15.12;48.91
62942;BME280;49042;47.318;19.874;2023-03-23T17:19:14;100197.25;;;15.00;49.60
62942;BME280;49042;47.318;19.874;2023-03-23T17:22:17;100205.91;;;14.91;50.01
62942;BME280;49042;47.318;19.874;2023-03-23T17:25:19;100204.34;;;15.11;49.33
62942;BME280;49042;47.318;19.874;2023-03-23T17:28:21;100214.91;;;15.15;49.51
62942;BME280;49042;47.318;19.874;2023-03-23T17:31:24;100213.03;;;15.00;50.40
62942;BME280;49042;47.318;19.874;2023-03-23T17:34:26;100228.03;;;15.17;49.31
62942;BME280;49042;47.318;19.874;2023-03-23T17:37:29;100224.41;;;15.01;50.17
62942;BME280;49042;47.318;19.874;2023-03-23T17:40:30;100219.72;;;14.70;51.42